createdAt,value
2022-10-19T00:02:30.677Z,101105.09
2022-10-19T00:05:33.216Z,101090.84
2022-10-19T00:08:35.696Z,101077.41
2022-10-19T00:11:40.814Z,101091.81
2022-10-19T00:14:43.159Z,101095.94
2022-10-19T00:17:45.590Z,101071.69
2022-10-19T00:20:47.895Z,101073.31
2022-10-19T00:23:50.296Z,101069.75
2022-10-19T00:26:52.692Z,101060.50
2022-10-19T00:29:55.112Z,101061.53
2022-10-19T00:32:57.470Z,101057.13
2022-10-19T00:35:59.791Z,101055.97
2022-10-19T00:39:04.643Z,101045.97
2022-10-19T00:42:11.803Z,101057.69
2022-10-19T00:45:17.726Z,101054.59
2022-10-19T00:48:27.214Z,101035.53
2022-10-19T00:51:31.520Z,101033.84
2022-10-19T00:54:36.852Z,101038.16
2022-10-19T00:57:39.737Z,101029.41
2022-10-19T01:00:42.863Z,101037.28
2022-10-19T01:03:45.683Z,101021.75
2022-10-19T01:06:48.243Z,101026.09
2022-10-19T01:09:51.094Z,101021.44
2022-10-19T01:13:17.007Z,101009.25
2022-10-19T01:17:01.528Z,101021.25
2022-10-19T01:20:07.059Z,101021.69
2022-10-19T01:23:36.926Z,101012.00
2022-10-19T01:27:19.082Z,101017.88
2022-10-19T01:30:58.482Z,100999.59
2022-10-19T01:34:13.178Z,100995.25
2022-10-19T01:37:38.803Z,101001.31
2022-10-19T01:41:11.164Z,101005.25
2022-10-19T01:44:27.051Z,101018.19
2022-10-19T01:47:49.716Z,101019.22
2022-10-19T01:51:02.679Z,101020.66
2022-10-19T01:54:09.724Z,101019.88
2022-10-19T01:57:17.390Z,101018.91
2022-10-19T02:00:23.223Z,101002.53
2022-10-19T02:03:26.724Z,101001.31
2022-10-19T02:06:29.887Z,101012.38
2022-10-19T02:09:32.391Z,101021.28
2022-10-19T02:12:37.230Z,101029.34
2022-10-19T02:15:43.344Z,101040.44
2022-10-19T02:18:49.462Z,101042.75
2022-10-19T02:21:52.415Z,101035.72
2022-10-19T02:24:54.784Z,101030.47
2022-10-19T02:27:57.342Z,101025.16
2022-10-19T02:31:00.211Z,101025.16
2022-10-19T02:34:02.735Z,101041.38
2022-10-19T02:37:06.666Z,101047.06
2022-10-19T02:40:10.797Z,101046.56
2022-10-19T02:43:15.226Z,101043.81
2022-10-19T02:46:25.639Z,101033.34
2022-10-19T02:49:29.714Z,101025.00
2022-10-19T02:52:32.133Z,101024.16
2022-10-19T02:55:34.986Z,101029.97
2022-10-19T02:58:37.339Z,101017.97
2022-10-19T03:01:39.682Z,101019.34
2022-10-19T03:04:44.194Z,101017.63
2022-10-19T03:07:53.631Z,101027.03
2022-10-19T03:10:59.270Z,101018.94
2022-10-19T03:14:01.573Z,101023.06
2022-10-19T03:17:04.242Z,101016.88
2022-10-19T03:20:07.051Z,101018.94
2022-10-19T03:23:09.411Z,101021.78
2022-10-19T03:26:14.718Z,101022.69
2022-10-19T03:29:17.337Z,101020.44
2022-10-19T03:32:19.816Z,101028.78
2022-10-19T03:35:22.323Z,101034.00
2022-10-19T03:38:25.030Z,101033.50
2022-10-19T03:41:30.357Z,101018.75
2022-10-19T03:44:32.704Z,101030.59
2022-10-19T03:47:35.653Z,101031.47
2022-10-19T03:50:43.468Z,101028.19
2022-10-19T03:53:46.912Z,101037.09
2022-10-19T03:56:49.175Z,101030.13
2022-10-19T03:59:52.045Z,101021.75
2022-10-19T04:02:54.354Z,101022.94
2022-10-19T04:06:03.736Z,101024.56
2022-10-19T04:09:08.063Z,101039.69
2022-10-19T04:12:10.377Z,101046.75
2022-10-19T04:15:12.741Z,101046.19
2022-10-19T04:18:15.020Z,101051.06
2022-10-19T04:21:35.872Z,101048.78
2022-10-19T04:24:38.230Z,101050.31
2022-10-19T04:27:40.561Z,101047.66
2022-10-19T04:30:42.912Z,101043.97
2022-10-19T04:36:49.062Z,101062.72
2022-10-19T04:39:51.709Z,101056.56
2022-10-19T04:42:54.129Z,101044.41
2022-10-19T04:45:56.530Z,101055.22
2022-10-19T04:48:59.465Z,101050.66
2022-10-19T04:52:01.818Z,101046.31
2022-10-19T04:55:04.502Z,101039.00
2022-10-19T04:58:06.999Z,101033.69
2022-10-19T05:01:18.093Z,101026.28
2022-10-19T05:04:20.516Z,101009.97
2022-10-19T05:07:22.964Z,101003.81
2022-10-19T05:10:27.529Z,101005.97
2022-10-19T05:13:32.847Z,101019.84
2022-10-19T05:16:35.425Z,101011.19
2022-10-19T05:19:37.818Z,101017.69
2022-10-19T05:22:40.483Z,101040.28
2022-10-19T05:25:42.919Z,101040.56
2022-10-19T05:28:50.151Z,101034.50
2022-10-19T05:31:52.586Z,101024.78
2022-10-19T05:34:55.072Z,101038.13
2022-10-19T05:37:57.523Z,101036.66
2022-10-19T05:41:01.232Z,101043.97
2022-10-19T05:44:05.287Z,101041.66
2022-10-19T05:47:07.736Z,101034.84
2022-10-19T05:50:10.364Z,101032.13
2022-10-19T05:53:13.188Z,101049.47
2022-10-19T05:56:19.907Z,101048.09
2022-10-19T05:59:23.624Z,101056.97
2022-10-19T06:02:26.199Z,101042.88
2022-10-19T06:05:29.052Z,101050.88
2022-10-19T06:08:31.925Z,101054.31
2022-10-19T06:11:36.655Z,101051.19
2022-10-19T06:14:39.244Z,101052.81
2022-10-19T06:17:41.961Z,101059.84
2022-10-19T06:20:48.411Z,101063.88
2022-10-19T06:23:56.998Z,101065.03
2022-10-19T06:26:59.468Z,101060.28
2022-10-19T06:30:03.016Z,101057.97
2022-10-19T06:33:06.283Z,101063.34
2022-10-19T06:36:11.340Z,101065.47
2022-10-19T06:39:13.844Z,101057.84
2022-10-19T06:42:16.367Z,101052.81
2022-10-19T06:45:18.892Z,101050.78
2022-10-19T06:48:21.636Z,101057.66
2022-10-19T06:51:26.014Z,101060.03
2022-10-19T06:54:29.481Z,101054.47
2022-10-19T06:57:32.326Z,101064.31
2022-10-19T07:00:35.439Z,101064.16
2022-10-19T07:03:38.444Z,101066.41
2022-10-19T07:06:40.930Z,101070.75
2022-10-19T07:09:43.476Z,101071.59
2022-10-19T07:12:46.057Z,101081.75
2022-10-19T07:15:48.872Z,101079.47
2022-10-19T07:18:53.169Z,101073.69
2022-10-19T07:21:55.546Z,101068.56
2022-10-19T07:24:58.723Z,101058.31
2022-10-19T07:28:01.343Z,101062.41
2022-10-19T07:31:09.188Z,101061.97
2022-10-19T07:34:14.754Z,101052.34
2022-10-19T07:37:17.466Z,101053.31
2022-10-19T07:40:21.911Z,101051.56
2022-10-19T07:43:24.319Z,101048.69
2022-10-19T07:46:38.667Z,101060.84
2022-10-19T07:49:41.902Z,101054.84
2022-10-19T07:52:44.385Z,101050.75
2022-10-19T07:55:47.175Z,101053.34
2022-10-19T07:58:50.967Z,101050.59
2022-10-19T08:01:54.808Z,101049.13
2022-10-19T08:05:01.790Z,101037.16
2022-10-19T08:08:06.927Z,101039.22
2022-10-19T08:11:14.320Z,101049.25
2022-10-19T08:14:16.964Z,101043.47
2022-10-19T08:17:19.494Z,101046.63
2022-10-19T08:20:23.663Z,101048.31
2022-10-19T08:23:27.483Z,101055.81
2022-10-19T08:26:32.210Z,101059.31
2022-10-19T08:29:34.721Z,101055.91
2022-10-19T08:32:38.144Z,101038.59
2022-10-19T08:35:40.742Z,101038.88
2022-10-19T08:38:45.084Z,101034.59
2022-10-19T08:42:19.551Z,101041.09
2022-10-19T08:45:30.644Z,101039.41
2022-10-19T08:48:38.082Z,101038.53
2022-10-19T08:51:43.141Z,101032.63
2022-10-19T08:55:04.658Z,101028.00
2022-10-19T08:58:29.709Z,101020.72
2022-10-19T09:01:39.626Z,101020.00
2022-10-19T09:04:49.749Z,101029.19
2022-10-19T09:07:53.978Z,101029.78
2022-10-19T09:10:57.499Z,101025.31
2022-10-19T09:14:13.933Z,101021.00
2022-10-19T09:17:19.904Z,101019.88
2022-10-19T09:20:29.523Z,101026.53
2022-10-19T09:23:39.453Z,101026.84
2022-10-19T09:26:52.251Z,101033.56
2022-10-19T09:29:57.812Z,101033.41
2022-10-19T09:33:02.141Z,101026.31
2022-10-19T09:36:07.663Z,101025.91
2022-10-19T09:39:13.391Z,101024.16
2022-10-19T09:42:22.758Z,101030.41
2022-10-19T09:45:46.770Z,101025.91
2022-10-19T09:48:52.355Z,101023.09
2022-10-19T09:51:55.358Z,101021.97
2022-10-19T09:55:16.544Z,101017.34
2022-10-19T09:58:20.476Z,101021.34
2022-10-19T10:01:59.236Z,101018.97
2022-10-19T10:05:07.600Z,101013.84
2022-10-19T10:08:15.554Z,101002.22
2022-10-19T10:11:37.742Z,101008.63
2022-10-19T10:14:41.577Z,101000.13
2022-10-19T10:17:47.615Z,100999.44
2022-10-19T10:21:06.835Z,101002.59
2022-10-19T10:24:12.899Z,100991.56
2022-10-19T10:27:30.355Z,100989.50
2022-10-19T10:30:37.412Z,100993.28
2022-10-19T10:33:45.064Z,100988.59
2022-10-19T10:36:53.867Z,100984.50
2022-10-19T10:40:01.928Z,100981.69
2022-10-19T10:43:13.837Z,100979.66
2022-10-19T10:46:21.496Z,100987.50
2022-10-19T10:49:28.787Z,100982.06
2022-10-19T10:52:31.752Z,100978.97
2022-10-19T10:55:34.970Z,100977.34
2022-10-19T10:58:58.884Z,100968.47
2022-10-19T11:02:18.291Z,100970.38
2022-10-19T11:05:38.933Z,100971.50
2022-10-19T11:09:01.403Z,100969.78
2022-10-19T11:12:12.578Z,100951.94
2022-10-19T11:15:47.572Z,100964.03
2022-10-19T11:23:14.580Z,100952.81
2022-10-19T11:26:23.857Z,100956.41
2022-10-19T11:29:32.271Z,100954.63
2022-10-19T11:32:46.080Z,100947.97
2022-10-19T11:35:58.073Z,100939.00
2022-10-19T11:39:09.468Z,100934.97
2022-10-19T11:42:24.603Z,100937.50
2022-10-19T11:45:48.307Z,100943.34
2022-10-19T11:49:22.221Z,100937.81
2022-10-19T11:52:34.576Z,100927.00
2022-10-19T11:55:47.041Z,100925.44
2022-10-19T11:59:15.240Z,100921.28
2022-10-19T12:02:25.549Z,100926.56
2022-10-19T12:05:49.531Z,100931.00
2022-10-19T12:09:04.590Z,100922.59
2022-10-19T12:12:39.787Z,100912.03
2022-10-19T12:15:44.098Z,100907.31
2022-10-19T12:18:50.572Z,100889.53
2022-10-19T12:22:01.393Z,100893.84
2022-10-19T12:25:05.400Z,100890.25
2022-10-19T12:28:10.968Z,100888.47
2022-10-19T12:31:18.403Z,100890.44
2022-10-19T12:34:21.342Z,100889.06
2022-10-19T12:37:32.948Z,100889.78
2022-10-19T12:40:42.382Z,100878.50
2022-10-19T12:43:57.737Z,100871.69
2022-10-19T12:47:08.487Z,100871.09
2022-10-19T12:50:10.967Z,100870.06
2022-10-19T12:53:31.239Z,100871.50
2022-10-19T12:56:47.849Z,100864.72
2022-10-19T13:00:04.235Z,100863.03
2022-10-19T13:03:25.131Z,100860.03
2022-10-19T13:06:34.303Z,100862.44
2022-10-19T13:09:44.303Z,100865.84
2022-10-19T13:12:48.572Z,100856.09
2022-10-19T13:15:52.157Z,100866.59
2022-10-19T13:19:14.452Z,100864.53
2022-10-19T13:22:25.684Z,100867.50
2022-10-19T13:25:38.287Z,100857.47
2022-10-19T13:28:53.020Z,100865.88
2022-10-19T13:31:55.783Z,100877.03
2022-10-19T13:35:28.980Z,100877.22
2022-10-19T13:41:50.327Z,100867.00
2022-10-19T13:44:53.681Z,100863.44
2022-10-19T13:48:10.784Z,100865.53
2022-10-19T13:51:52.424Z,100869.00
2022-10-19T13:55:47.538Z,100863.56
2022-10-19T13:59:44.210Z,100872.09
2022-10-19T14:03:22.481Z,100875.88
2022-10-19T14:06:33.003Z,100882.00
2022-10-19T14:09:52.221Z,100883.25
2022-10-19T14:12:55.400Z,100876.28
2022-10-19T14:16:01.473Z,100878.41
2022-10-19T14:19:13.661Z,100880.88
2022-10-19T14:22:36.025Z,100885.03
2022-10-19T14:25:38.414Z,100879.91
2022-10-19T14:28:42.987Z,100890.81
2022-10-19T14:31:45.696Z,100886.84
2022-10-19T14:34:49.410Z,100887.13
2022-10-19T14:37:51.909Z,100890.56
2022-10-19T14:40:56.558Z,100893.34
2022-10-19T14:44:00.582Z,100895.66
2022-10-19T14:47:18.730Z,100896.94
2022-10-19T14:50:26.467Z,100891.66
2022-10-19T14:53:41.243Z,100899.47
2022-10-19T14:56:55.829Z,100898.44
2022-10-19T15:00:04.408Z,100896.03
2022-10-19T15:03:13.429Z,100883.00
2022-10-19T15:06:42.448Z,100893.50
2022-10-19T15:09:53.308Z,100891.84
2022-10-19T15:13:04.555Z,100889.31
2022-10-19T15:16:07.237Z,100905.44
2022-10-19T15:19:16.336Z,100905.22
2022-10-19T15:22:41.811Z,100903.78
2022-10-19T15:25:44.169Z,100917.44
2022-10-19T15:28:47.477Z,100922.66
2022-10-19T15:31:50.746Z,100922.59
2022-10-19T15:34:53.168Z,100912.91
2022-10-19T15:38:06.448Z,100914.19
2022-10-19T15:41:21.393Z,100918.22
2022-10-19T15:44:33.650Z,100924.44
2022-10-19T15:47:36.266Z,100936.53
2022-10-19T15:50:45.217Z,100933.44
2022-10-19T15:53:47.756Z,100943.38
2022-10-19T15:56:52.224Z,100945.22
2022-10-19T15:59:56.320Z,100950.44
2022-10-19T16:02:58.744Z,100946.53
2022-10-19T16:06:01.493Z,100959.63
2022-10-19T16:09:04.653Z,100953.78
2022-10-19T16:12:09.090Z,100960.84
2022-10-19T16:15:23.726Z,100974.59
2022-10-19T16:18:26.406Z,100993.25
2022-10-19T16:21:32.517Z,101002.19
2022-10-19T16:24:35.319Z,101004.38
2022-10-19T16:27:38.213Z,101000.22
2022-10-19T16:30:40.777Z,101007.34
2022-10-19T16:33:43.384Z,101009.63
2022-10-19T16:36:46.293Z,101010.00
2022-10-19T16:39:49.025Z,101008.66
2022-10-19T16:42:51.509Z,101019.75
2022-10-19T16:45:59.962Z,101015.66
2022-10-19T16:49:02.953Z,101010.94
2022-10-19T16:52:06.179Z,101026.31
2022-10-19T16:55:09.001Z,101031.00
2022-10-19T16:58:11.446Z,101035.53
2022-10-19T17:01:17.267Z,101041.81
2022-10-19T17:04:19.715Z,101039.22
2022-10-19T17:07:22.368Z,101035.97
2022-10-19T17:10:26.231Z,101046.44
2022-10-19T17:13:28.770Z,101035.47
2022-10-19T17:16:32.934Z,101051.13
2022-10-19T17:19:37.010Z,101047.84
2022-10-19T17:22:39.638Z,101095.31
2022-10-19T17:25:49.078Z,101039.81
2022-10-19T17:28:51.762Z,101046.84
2022-10-19T17:31:54.411Z,101054.22
2022-10-19T17:34:57.010Z,101051.78
2022-10-19T17:37:59.680Z,101055.13
2022-10-19T17:41:12.062Z,101065.63
2022-10-19T17:44:17.587Z,101074.50
2022-10-19T17:47:20.210Z,101062.34
2022-10-19T17:50:22.970Z,101071.31
2022-10-19T17:53:26.232Z,101059.97
2022-10-19T17:56:29.594Z,101070.47
2022-10-19T17:59:46.783Z,101067.22
2022-10-19T18:02:55.254Z,101067.31
2022-10-19T18:06:04.535Z,101066.56
2022-10-19T18:09:09.886Z,101074.25
2022-10-19T18:12:13.410Z,101087.69
2022-10-19T18:15:16.159Z,101077.88
2022-10-19T18:18:19.472Z,101063.34
2022-10-19T18:21:25.815Z,101077.72
2022-10-19T18:24:28.826Z,101075.97
2022-10-19T18:27:31.585Z,101072.53
2022-10-19T18:30:37.669Z,101071.41
2022-10-19T18:33:41.055Z,101072.47
2022-10-19T18:36:44.485Z,101059.69
2022-10-19T18:39:47.464Z,101069.41
2022-10-19T18:42:50.131Z,101083.44
2022-10-19T18:45:54.098Z,101080.34
2022-10-19T18:48:56.866Z,101069.44
2022-10-19T18:51:59.593Z,101070.34
2022-10-19T18:55:02.339Z,101062.56
2022-10-19T18:58:05.066Z,101073.50
2022-10-19T19:01:22.868Z,101069.34
2022-10-19T19:04:25.634Z,101064.31
2022-10-19T19:07:28.068Z,101071.53
2022-10-19T19:10:30.741Z,101069.78
2022-10-19T19:13:33.361Z,101090.06
2022-10-19T19:16:38.013Z,101085.41
2022-10-19T19:19:41.247Z,101087.25
2022-10-19T19:22:43.932Z,101099.00
2022-10-19T19:25:46.826Z,101077.72
2022-10-19T19:28:51.573Z,101112.91
2022-10-19T19:31:54.751Z,101097.16
2022-10-19T19:34:57.907Z,101096.63
2022-10-19T19:38:00.541Z,101088.38
2022-10-19T19:41:06.743Z,101083.13
2022-10-19T19:44:09.439Z,101087.31
2022-10-19T19:47:12.125Z,101085.63
2022-10-19T19:50:15.777Z,101097.41
2022-10-19T19:53:19.904Z,101104.97
2022-10-19T19:56:22.551Z,101098.75
2022-10-19T19:59:25.746Z,101099.06
2022-10-19T20:02:28.412Z,101111.69
2022-10-19T20:05:31.932Z,101127.50
2022-10-19T20:08:36.320Z,101139.53
2022-10-19T20:11:42.599Z,101126.44
2022-10-19T20:14:45.502Z,101134.94
2022-10-19T20:17:48.185Z,101143.97
2022-10-19T20:20:54.415Z,101131.41
2022-10-19T20:23:57.340Z,101149.00
2022-10-19T20:27:00.206Z,101153.03
2022-10-19T20:30:04.820Z,101156.47
2022-10-19T20:33:08.333Z,101171.56
2022-10-19T20:36:15.164Z,101175.06
2022-10-19T20:39:18.482Z,101174.13
2022-10-19T20:42:21.694Z,101175.06
2022-10-19T20:45:24.262Z,101183.16
2022-10-19T20:48:26.821Z,101186.44
2022-10-19T20:51:32.665Z,101185.41
2022-10-19T20:54:35.894Z,101178.47
2022-10-19T20:57:38.464Z,101177.84
2022-10-19T21:00:42.044Z,101185.88
2022-10-19T21:03:52.747Z,101192.75
2022-10-19T21:06:55.402Z,101196.66
2022-10-19T21:09:58.461Z,101202.97
2022-10-19T21:13:00.863Z,101195.16
2022-10-19T21:16:30.271Z,101202.38
2022-10-19T21:19:32.697Z,101203.22
2022-10-19T21:22:39.570Z,101204.25
2022-10-19T21:25:52.593Z,101215.66
2022-10-19T21:28:55.213Z,101218.59
2022-10-19T21:31:57.654Z,101209.66
2022-10-19T21:35:00.028Z,101211.53
2022-10-19T21:38:02.406Z,101218.78
2022-10-19T21:41:14.558Z,101220.78
2022-10-19T21:44:18.146Z,101221.06
2022-10-19T21:47:20.503Z,101221.28
2022-10-19T21:50:24.044Z,101231.72
2022-10-19T21:53:26.703Z,101239.59
2022-10-19T21:56:29.331Z,101236.69
2022-10-19T21:59:31.782Z,101252.72
2022-10-19T22:02:34.166Z,101258.13
2022-10-19T22:05:36.608Z,101260.22
2022-10-19T22:08:39.900Z,101262.78
2022-10-19T22:11:42.950Z,101268.13
2022-10-19T22:14:45.750Z,101270.41
2022-10-19T22:17:48.183Z,101269.00
2022-10-19T22:20:52.999Z,101274.09
2022-10-19T22:24:00.698Z,101277.69
2022-10-19T22:27:03.138Z,101277.41
2022-10-19T22:30:07.783Z,101283.56
2022-10-19T22:33:10.128Z,101272.59
2022-10-19T22:36:13.490Z,101280.19
2022-10-19T22:39:16.693Z,101278.53
2022-10-19T22:42:19.092Z,101278.78
2022-10-19T22:45:21.484Z,101286.25
2022-10-19T22:48:24.071Z,101298.84
2022-10-19T22:51:27.151Z,101296.19
2022-10-19T22:54:29.505Z,101284.34
2022-10-19T22:57:31.914Z,101286.97
2022-10-19T23:00:34.710Z,101276.88
2022-10-19T23:03:40.468Z,101269.69
2022-10-19T23:06:42.915Z,101270.13
2022-10-19T23:09:45.354Z,101272.28
2022-10-19T23:12:52.483Z,101281.81
2022-10-19T23:15:54.966Z,101280.16
2022-10-19T23:18:57.340Z,101274.28
2022-10-19T23:21:59.777Z,101280.25
2022-10-19T23:25:02.166Z,101276.13
2022-10-19T23:28:04.728Z,101288.41
2022-10-19T23:31:19.187Z,101286.91
2022-10-19T23:34:21.601Z,101285.75
2022-10-19T23:37:24.006Z,101287.69
2022-10-19T23:40:29.084Z,101296.03
2022-10-19T23:43:31.755Z,101293.28
2022-10-19T23:46:34.154Z,101298.22
2022-10-19T23:49:36.664Z,101311.75
2022-10-19T23:52:39.090Z,101321.72
2022-10-19T23:55:41.444Z,101325.66
2022-10-19T23:58:44.198Z,101326.13
